sensor_id;sensor_type;location;lat;lon;timestamp;temperature;humidity
37530;DHT22;23374;52.758;6.872;2023-06-14T00:01:52;20.50;99.90
37530;DHT22;23374;52.758;6.872;2023-06-14T00:04:13;20.40;99.90
37530;DHT22;23374;52.758;6.872;2023-06-14T00:06:33;20.40;99.90
37530;DHT22;23374;52.758;6.872;2023-06-14T00:08:54;20.30;99.90
37530;DHT22;23374;52.758;6.872;2023-06-14T00:11:14;20.20;99.90
37530;DHT22;23374;52.758;6.872;2023-06-14T00:13:35;20.20;99.90
37530;DHT22;23374;52.758;6.872;2023-06-14T00:15:55;20.10;99.90
37530;DHT22;23374;52.758;6.872;2023-06-14T00:18:16;20.10;99.90
37530;DHT22;23374;52.758;6.872;2023-06-14T00:20:37;20.00;99.90
37530;DHT22;23374;52.758;6.872;2023-06-14T00:23:00;20.00;99.90
37530;DHT22;23374;52.758;6.872;2023-06-14T00:25:23;19.90;99.90
37530;DHT22;23374;52.758;6.872;2023-06-14T00:27:46;19.90;99.90
37530;DHT22;23374;52.758;6.872;2023-06-14T00:30:08;19.80;99.90
37530;DHT22;23374;52.758;6.872;2023-06-14T00:32:29;19.80;99.90
37530;DHT22;23374;52.758;6.872;2023-06-14T00:34:49;19.80;99.90
37530;DHT22;23374;52.758;6.872;2023-06-14T00:37:09;19.70;99.90
37530;DHT22;23374;52.758;6.872;2023-06-14T00:39:30;19.60;99.90
37530;DHT22;23374;52.758;6.872;2023-06-14T00:41:50;19.60;99.90
37530;DHT22;23374;52.758;6.872;2023-06-14T00:44:11;19.60;99.90
37530;DHT22;23374;52.758;6.872;2023-06-14T00:46:31;19.60;99.90
37530;DHT22;23374;52.758;6.872;2023-06-14T00:50:14;19.50;1.00
37530;DHT22;23374;52.758;6.872;2023-06-14T00:52:34;19.50;99.90
37530;DHT22;23374;52.758;6.872;2023-06-14T00:54:56;19.40;1.00
37530;DHT22;23374;52.758;6.872;2023-06-14T00:57:16;19.40;99.90
37530;DHT22;23374;52.758;6.872;2023-06-14T00:59:49;19.40;99.90
37530;DHT22;23374;52.758;6.872;2023-06-14T01:02:10;19.40;1.00
37530;DHT22;23374;52.758;6.872;2023-06-14T01:04:31;19.40;1.00
37530;DHT22;23374;52.758;6.872;2023-06-14T01:16:29;19.30;1.00
37530;DHT22;23374;52.758;6.872;2023-06-14T01:18:53;19.10;1.00
37530;DHT22;23374;52.758;6.872;2023-06-14T01:21:24;19.10;1.00
37530;DHT22;23374;52.758;6.872;2023-06-14T01:23:45;19.10;1.00
37530;DHT22;23374;52.758;6.872;2023-06-14T01:26:05;19.10;1.00
37530;DHT22;23374;52.758;6.872;2023-06-14T01:28:27;19.00;1.00
37530;DHT22;23374;52.758;6.872;2023-06-14T01:30:55;19.00;1.00
37530;DHT22;23374;52.758;6.872;2023-06-14T01:33:19;18.90;1.00
37530;DHT22;23374;52.758;6.872;2023-06-14T01:35:43;18.90;1.00
37530;DHT22;23374;52.758;6.872;2023-06-14T01:38:05;18.80;1.00
37530;DHT22;23374;52.758;6.872;2023-06-14T01:40:27;18.70;1.00
37530;DHT22;23374;52.758;6.872;2023-06-14T01:42:50;18.70;1.00
37530;DHT22;23374;52.758;6.872;2023-06-14T01:45:11;18.70;1.00
37530;DHT22;23374;52.758;6.872;2023-06-14T01:47:33;18.70;1.00
37530;DHT22;23374;52.758;6.872;2023-06-14T01:50:20;18.60;1.00
37530;DHT22;23374;52.758;6.872;2023-06-14T01:52:41;18.60;1.00
37530;DHT22;23374;52.758;6.872;2023-06-14T01:55:01;18.50;1.00
37530;DHT22;23374;52.758;6.872;2023-06-14T01:57:24;18.40;1.00
37530;DHT22;23374;52.758;6.872;2023-06-14T01:59:45;18.40;1.00
37530;DHT22;23374;52.758;6.872;2023-06-14T02:02:08;18.40;1.00
37530;DHT22;23374;52.758;6.872;2023-06-14T02:04:28;18.30;1.00
37530;DHT22;23374;52.758;6.872;2023-06-14T02:06:49;18.30;1.00
37530;DHT22;23374;52.758;6.872;2023-06-14T02:09:09;18.30;9.00
37530;DHT22;23374;52.758;6.872;2023-06-14T02:11:30;18.20;1.00
37530;DHT22;23374;52.758;6.872;2023-06-14T02:13:50;18.20;1.00
37530;DHT22;23374;52.758;6.872;2023-06-14T02:16:11;18.20;1.90
37530;DHT22;23374;52.758;6.872;2023-06-14T02:18:31;18.20;19.30
37530;DHT22;23374;52.758;6.872;2023-06-14T02:20:52;18.20;15.10
37530;DHT22;23374;52.758;6.872;2023-06-14T02:23:12;18.20;1.00
37530;DHT22;23374;52.758;6.872;2023-06-14T02:25:33;18.20;16.20
37530;DHT22;23374;52.758;6.872;2023-06-14T02:27:54;18.10;35.90
37530;DHT22;23374;52.758;6.872;2023-06-14T02:30:15;18.10;99.90
37530;DHT22;23374;52.758;6.872;2023-06-14T02:32:36;17.90;99.90
37530;DHT22;23374;52.758;6.872;2023-06-14T02:34:56;17.90;99.90
37530;DHT22;23374;52.758;6.872;2023-06-14T02:37:17;17.90;99.90
37530;DHT22;23374;52.758;6.872;2023-06-14T02:39:37;17.90;99.90
37530;DHT22;23374;52.758;6.872;2023-06-14T02:41:58;18.00;99.90
37530;DHT22;23374;52.758;6.872;2023-06-14T02:44:18;18.00;99.90
37530;DHT22;23374;52.758;6.872;2023-06-14T02:46:39;17.90;99.90
37530;DHT22;23374;52.758;6.872;2023-06-14T02:49:00;17.90;99.90
37530;DHT22;23374;52.758;6.872;2023-06-14T02:51:20;17.80;99.90
37530;DHT22;23374;52.758;6.872;2023-06-14T02:53:40;17.80;99.90
37530;DHT22;23374;52.758;6.872;2023-06-14T02:56:00;17.70;99.90
37530;DHT22;23374;52.758;6.872;2023-06-14T02:58:21;17.70;99.90
37530;DHT22;23374;52.758;6.872;2023-06-14T03:00:43;17.70;99.90
37530;DHT22;23374;52.758;6.872;2023-06-14T03:03:04;17.70;99.90
37530;DHT22;23374;52.758;6.872;2023-06-14T03:05:25;17.70;99.90
37530;DHT22;23374;52.758;6.872;2023-06-14T03:07:49;17.60;99.90
37530;DHT22;23374;52.758;6.872;2023-06-14T03:10:10;17.70;99.90
37530;DHT22;23374;52.758;6.872;2023-06-14T03:12:33;17.60;99.90
37530;DHT22;23374;52.758;6.872;2023-06-14T03:14:53;17.50;99.90
37530;DHT22;23374;52.758;6.872;2023-06-14T03:17:17;17.40;99.90
37530;DHT22;23374;52.758;6.872;2023-06-14T03:19:37;17.40;99.90
37530;DHT22;23374;52.758;6.872;2023-06-14T03:21:58;17.40;99.90
37530;DHT22;23374;52.758;6.872;2023-06-14T03:24:19;17.40;1.00
37530;DHT22;23374;52.758;6.872;2023-06-14T03:26:39;17.40;1.00
37530;DHT22;23374;52.758;6.872;2023-06-14T03:29:01;17.30;1.00
37530;DHT22;23374;52.758;6.872;2023-06-14T03:31:21;17.30;1.00
37530;DHT22;23374;52.758;6.872;2023-06-14T03:33:42;17.10;1.00
37530;DHT22;23374;52.758;6.872;2023-06-14T03:36:03;17.10;1.00
37530;DHT22;23374;52.758;6.872;2023-06-14T03:38:24;17.10;1.00
37530;DHT22;23374;52.758;6.872;2023-06-14T03:40:44;17.00;1.00
37530;DHT22;23374;52.758;6.872;2023-06-14T03:43:05;16.90;6.00
37530;DHT22;23374;52.758;6.872;2023-06-14T03:45:26;16.90;1.00
37530;DHT22;23374;52.758;6.872;2023-06-14T03:47:46;17.00;1.00
37530;DHT22;23374;52.758;6.872;2023-06-14T03:50:07;17.00;1.00
37530;DHT22;23374;52.758;6.872;2023-06-14T03:52:28;17.00;1.00
37530;DHT22;23374;52.758;6.872;2023-06-14T03:54:49;17.00;1.00
37530;DHT22;23374;52.758;6.872;2023-06-14T03:57:10;16.90;1.00
37530;DHT22;23374;52.758;6.872;2023-06-14T03:59:30;16.90;1.00
37530;DHT22;23374;52.758;6.872;2023-06-14T04:01:51;16.90;1.00
37530;DHT22;23374;52.758;6.872;2023-06-14T04:04:12;16.90;40.10
37530;DHT22;23374;52.758;6.872;2023-06-14T04:06:32;16.90;1.00
37530;DHT22;23374;52.758;6.872;2023-06-14T04:08:53;17.00;1.00
37530;DHT22;23374;52.758;6.872;2023-06-14T04:11:13;17.00;94.50
37530;DHT22;23374;52.758;6.872;2023-06-14T04:13:34;16.90;55.00
37530;DHT22;23374;52.758;6.872;2023-06-14T04:15:55;16.90;1.00
37530;DHT22;23374;52.758;6.872;2023-06-14T04:18:17;17.00;1.00
37530;DHT22;23374;52.758;6.872;2023-06-14T04:20:38;17.00;1.00
37530;DHT22;23374;52.758;6.872;2023-06-14T04:23:14;17.00;20.80
37530;DHT22;23374;52.758;6.872;2023-06-14T04:25:35;16.90;99.90
37530;DHT22;23374;52.758;6.872;2023-06-14T04:27:55;16.80;51.90
37530;DHT22;23374;52.758;6.872;2023-06-14T04:30:16;16.80;99.90
37530;DHT22;23374;52.758;6.872;2023-06-14T04:32:37;16.80;17.80
37530;DHT22;23374;52.758;6.872;2023-06-14T04:35:00;16.80;99.90
37530;DHT22;23374;52.758;6.872;2023-06-14T04:37:23;16.70;99.90
37530;DHT22;23374;52.758;6.872;2023-06-14T04:39:44;16.80;69.60
37530;DHT22;23374;52.758;6.872;2023-06-14T04:42:04;16.70;99.90
37530;DHT22;23374;52.758;6.872;2023-06-14T04:44:27;16.70;99.90
37530;DHT22;23374;52.758;6.872;2023-06-14T04:46:50;16.70;99.90
37530;DHT22;23374;52.758;6.872;2023-06-14T04:49:15;16.80;99.90
37530;DHT22;23374;52.758;6.872;2023-06-14T04:51:37;16.80;99.90
37530;DHT22;23374;52.758;6.872;2023-06-14T04:53:57;16.80;99.90
37530;DHT22;23374;52.758;6.872;2023-06-14T04:56:18;17.00;99.90
37530;DHT22;23374;52.758;6.872;2023-06-14T04:58:38;17.30;99.90
37530;DHT22;23374;52.758;6.872;2023-06-14T05:01:00;17.70;99.90
37530;DHT22;23374;52.758;6.872;2023-06-14T05:03:24;18.10;99.90
37530;DHT22;23374;52.758;6.872;2023-06-14T05:05:45;18.40;53.40
37530;DHT22;23374;52.758;6.872;2023-06-14T05:08:05;18.70;8.10
37530;DHT22;23374;52.758;6.872;2023-06-14T05:10:26;19.10;1.00
37530;DHT22;23374;52.758;6.872;2023-06-14T05:12:46;19.30;1.00
37530;DHT22;23374;52.758;6.872;2023-06-14T05:15:09;19.60;1.00
37530;DHT22;23374;52.758;6.872;2023-06-14T05:17:30;19.80;1.00
37530;DHT22;23374;52.758;6.872;2023-06-14T05:19:50;20.00;1.00
37530;DHT22;23374;52.758;6.872;2023-06-14T05:22:11;20.10;1.00
37530;DHT22;23374;52.758;6.872;2023-06-14T05:24:31;20.10;1.00
37530;DHT22;23374;52.758;6.872;2023-06-14T05:26:52;20.30;1.00
37530;DHT22;23374;52.758;6.872;2023-06-14T05:29:12;20.60;1.00
37530;DHT22;23374;52.758;6.872;2023-06-14T05:31:33;20.90;1.00
37530;DHT22;23374;52.758;6.872;2023-06-14T05:33:54;21.10;1.00
37530;DHT22;23374;52.758;6.872;2023-06-14T05:36:14;21.30;1.00
37530;DHT22;23374;52.758;6.872;2023-06-14T05:38:35;21.60;1.00
37530;DHT22;23374;52.758;6.872;2023-06-14T05:40:55;21.90;1.00
37530;DHT22;23374;52.758;6.872;2023-06-14T05:43:15;22.20;99.90
37530;DHT22;23374;52.758;6.872;2023-06-14T05:45:36;22.30;99.90
37530;DHT22;23374;52.758;6.872;2023-06-14T05:47:56;22.10;99.90
37530;DHT22;23374;52.758;6.872;2023-06-14T05:50:16;22.20;99.90
37530;DHT22;23374;52.758;6.872;2023-06-14T05:52:37;22.40;99.90
37530;DHT22;23374;52.758;6.872;2023-06-14T05:54:57;22.50;99.90
37530;DHT22;23374;52.758;6.872;2023-06-14T05:57:17;22.60;99.90
37530;DHT22;23374;52.758;6.872;2023-06-14T05:59:38;22.50;99.90
37530;DHT22;23374;52.758;6.872;2023-06-14T06:01:58;22.70;99.90
37530;DHT22;23374;52.758;6.872;2023-06-14T06:04:18;22.70;99.90
37530;DHT22;23374;52.758;6.872;2023-06-14T06:06:39;22.70;99.90
37530;DHT22;23374;52.758;6.872;2023-06-14T06:09:00;22.90;99.90
37530;DHT22;23374;52.758;6.872;2023-06-14T06:11:20;23.10;99.90
37530;DHT22;23374;52.758;6.872;2023-06-14T06:13:40;23.20;99.90
37530;DHT22;23374;52.758;6.872;2023-06-14T06:16:03;23.30;99.90
37530;DHT22;23374;52.758;6.872;2023-06-14T06:18:23;23.30;99.60
37530;DHT22;23374;52.758;6.872;2023-06-14T06:20:44;23.10;31.90
37530;DHT22;23374;52.758;6.872;2023-06-14T06:23:06;23.00;90.80
37530;DHT22;23374;52.758;6.872;2023-06-14T06:25:28;23.00;74.70
37530;DHT22;23374;52.758;6.872;2023-06-14T06:27:48;22.80;16.10
37530;DHT22;23374;52.758;6.872;2023-06-14T06:30:10;22.50;24.50
37530;DHT22;23374;52.758;6.872;2023-06-14T06:32:31;22.30;16.40
37530;DHT22;23374;52.758;6.872;2023-06-14T06:34:51;22.20;28.30
37530;DHT22;23374;52.758;6.872;2023-06-14T06:37:12;21.90;18.90
37530;DHT22;23374;52.758;6.872;2023-06-14T06:39:33;21.70;29.70
37530;DHT22;23374;52.758;6.872;2023-06-14T06:41:54;21.50;44.80
37530;DHT22;23374;52.758;6.872;2023-06-14T06:44:14;21.30;41.60
37530;DHT22;23374;52.758;6.872;2023-06-14T06:46:34;21.30;47.90
37530;DHT22;23374;52.758;6.872;2023-06-14T06:48:55;21.20;42.10
37530;DHT22;23374;52.758;6.872;2023-06-14T06:51:16;21.10;88.80
37530;DHT22;23374;52.758;6.872;2023-06-14T06:53:36;21.10;48.90
37530;DHT22;23374;52.758;6.872;2023-06-14T06:55:56;21.10;76.70
37530;DHT22;23374;52.758;6.872;2023-06-14T06:58:16;21.10;97.30
37530;DHT22;23374;52.758;6.872;2023-06-14T07:00:37;21.10;55.90
37530;DHT22;23374;52.758;6.872;2023-06-14T07:02:57;21.00;81.50
37530;DHT22;23374;52.758;6.872;2023-06-14T07:05:17;21.00;62.40
37530;DHT22;23374;52.758;6.872;2023-06-14T07:07:38;20.90;95.60
37530;DHT22;23374;52.758;6.872;2023-06-14T07:09:58;20.90;99.80
37530;DHT22;23374;52.758;6.872;2023-06-14T07:12:20;20.80;92.70
37530;DHT22;23374;52.758;6.872;2023-06-14T07:14:40;20.90;99.90
37530;DHT22;23374;52.758;6.872;2023-06-14T07:17:00;21.00;99.90
37530;DHT22;23374;52.758;6.872;2023-06-14T07:19:21;21.10;95.60
37530;DHT22;23374;52.758;6.872;2023-06-14T07:21:42;21.10;99.90
37530;DHT22;23374;52.758;6.872;2023-06-14T07:24:02;21.20;80.50
37530;DHT22;23374;52.758;6.872;2023-06-14T07:26:23;21.20;52.20
37530;DHT22;23374;52.758;6.872;2023-06-14T07:28:45;21.20;75.30
37530;DHT22;23374;52.758;6.872;2023-06-14T07:31:06;21.20;70.00
37530;DHT22;23374;52.758;6.872;2023-06-14T07:33:27;21.30;84.10
37530;DHT22;23374;52.758;6.872;2023-06-14T07:35:47;21.40;67.90
37530;DHT22;23374;52.758;6.872;2023-06-14T07:38:09;21.50;75.80
37530;DHT22;23374;52.758;6.872;2023-06-14T07:40:29;21.60;71.50
37530;DHT22;23374;52.758;6.872;2023-06-14T07:42:50;21.80;51.00
37530;DHT22;23374;52.758;6.872;2023-06-14T07:45:14;21.80;41.10
37530;DHT22;23374;52.758;6.872;2023-06-14T07:47:35;21.80;12.10
37530;DHT22;23374;52.758;6.872;2023-06-14T07:49:55;21.90;2.60
37530;DHT22;23374;52.758;6.872;2023-06-14T07:52:16;22.00;8.40
37530;DHT22;23374;52.758;6.872;2023-06-14T07:54:37;22.10;1.00
37530;DHT22;23374;52.758;6.872;2023-06-14T07:56:58;22.20;1.00
37530;DHT22;23374;52.758;6.872;2023-06-14T07:59:20;22.10;1.00
37530;DHT22;23374;52.758;6.872;2023-06-14T08:01:41;22.10;1.00
37530;DHT22;23374;52.758;6.872;2023-06-14T08:04:06;22.20;1.00
37530;DHT22;23374;52.758;6.872;2023-06-14T08:06:27;22.20;1.00
37530;DHT22;23374;52.758;6.872;2023-06-14T08:08:47;22.20;1.00
37530;DHT22;23374;52.758;6.872;2023-06-14T08:11:08;22.20;1.00
37530;DHT22;23374;52.758;6.872;2023-06-14T08:13:28;22.20;1.00
37530;DHT22;23374;52.758;6.872;2023-06-14T08:15:48;22.30;1.00
37530;DHT22;23374;52.758;6.872;2023-06-14T08:18:09;22.40;1.00
37530;DHT22;23374;52.758;6.872;2023-06-14T08:20:30;22.30;1.00
37530;DHT22;23374;52.758;6.872;2023-06-14T08:22:51;22.40;1.00
37530;DHT22;23374;52.758;6.872;2023-06-14T08:25:15;22.40;1.00
37530;DHT22;23374;52.758;6.872;2023-06-14T08:27:36;22.60;1.00
37530;DHT22;23374;52.758;6.872;2023-06-14T08:29:56;22.70;1.00
37530;DHT22;23374;52.758;6.872;2023-06-14T08:32:16;22.80;1.00
37530;DHT22;23374;52.758;6.872;2023-06-14T08:34:37;22.70;1.00
37530;DHT22;23374;52.758;6.872;2023-06-14T08:36:57;22.80;1.00
37530;DHT22;23374;52.758;6.872;2023-06-14T08:39:17;22.80;1.00
37530;DHT22;23374;52.758;6.872;2023-06-14T08:41:38;22.80;1.00
37530;DHT22;23374;52.758;6.872;2023-06-14T08:43:59;22.80;1.00
37530;DHT22;23374;52.758;6.872;2023-06-14T08:46:19;22.90;1.00
37530;DHT22;23374;52.758;6.872;2023-06-14T08:48:40;23.00;1.00
37530;DHT22;23374;52.758;6.872;2023-06-14T08:51:02;23.20;1.00
37530;DHT22;23374;52.758;6.872;2023-06-14T08:53:24;23.30;1.00
37530;DHT22;23374;52.758;6.872;2023-06-14T08:55:45;23.40;1.00
37530;DHT22;23374;52.758;6.872;2023-06-14T08:58:05;23.60;1.00
37530;DHT22;23374;52.758;6.872;2023-06-14T09:00:27;23.70;1.00
37530;DHT22;23374;52.758;6.872;2023-06-14T09:02:48;23.70;1.00
37530;DHT22;23374;52.758;6.872;2023-06-14T09:05:09;23.60;1.00
37530;DHT22;23374;52.758;6.872;2023-06-14T09:07:30;23.60;1.00
37530;DHT22;23374;52.758;6.872;2023-06-14T09:10:11;23.60;1.00
37530;DHT22;23374;52.758;6.872;2023-06-14T09:12:32;23.60;1.00
37530;DHT22;23374;52.758;6.872;2023-06-14T09:14:52;23.70;1.00
37530;DHT22;23374;52.758;6.872;2023-06-14T09:17:13;23.80;1.00
37530;DHT22;23374;52.758;6.872;2023-06-14T09:19:35;23.70;1.00
37530;DHT22;23374;52.758;6.872;2023-06-14T09:21:56;23.50;1.00
37530;DHT22;23374;52.758;6.872;2023-06-14T09:24:16;23.50;1.00
37530;DHT22;23374;52.758;6.872;2023-06-14T09:26:38;23.60;1.00
37530;DHT22;23374;52.758;6.872;2023-06-14T09:29:00;23.70;99.90
37530;DHT22;23374;52.758;6.872;2023-06-14T09:31:21;23.80;99.90
37530;DHT22;23374;52.758;6.872;2023-06-14T09:33:43;23.80;99.90
37530;DHT22;23374;52.758;6.872;2023-06-14T09:36:14;23.90;99.90
37530;DHT22;23374;52.758;6.872;2023-06-14T09:38:36;23.80;99.90
37530;DHT22;23374;52.758;6.872;2023-06-14T09:40:58;23.90;99.90
37530;DHT22;23374;52.758;6.872;2023-06-14T09:43:19;24.00;99.90
37530;DHT22;23374;52.758;6.872;2023-06-14T09:45:42;23.90;99.90
37530;DHT22;23374;52.758;6.872;2023-06-14T09:48:07;24.00;99.90
37530;DHT22;23374;52.758;6.872;2023-06-14T09:50:28;24.00;99.90
37530;DHT22;23374;52.758;6.872;2023-06-14T09:52:52;24.10;99.90
37530;DHT22;23374;52.758;6.872;2023-06-14T09:55:13;24.20;99.90
37530;DHT22;23374;52.758;6.872;2023-06-14T09:57:34;24.20;99.90
37530;DHT22;23374;52.758;6.872;2023-06-14T10:00:01;24.30;99.90
37530;DHT22;23374;52.758;6.872;2023-06-14T10:02:31;24.30;99.90
37530;DHT22;23374;52.758;6.872;2023-06-14T10:05:08;24.30;99.90
37530;DHT22;23374;52.758;6.872;2023-06-14T10:07:40;24.40;99.90
37530;DHT22;23374;52.758;6.872;2023-06-14T10:10:02;24.40;99.90
37530;DHT22;23374;52.758;6.872;2023-06-14T10:12:23;24.60;99.90
37530;DHT22;23374;52.758;6.872;2023-06-14T10:14:43;24.70;99.90
37530;DHT22;23374;52.758;6.872;2023-06-14T10:17:10;24.90;99.90
37530;DHT22;23374;52.758;6.872;2023-06-14T10:19:48;24.80;99.90
37530;DHT22;23374;52.758;6.872;2023-06-14T10:22:22;24.60;99.90
37530;DHT22;23374;52.758;6.872;2023-06-14T10:24:45;24.50;99.90
37530;DHT22;23374;52.758;6.872;2023-06-14T10:27:08;24.60;99.90
37530;DHT22;23374;52.758;6.872;2023-06-14T10:29:30;24.70;99.90
37530;DHT22;23374;52.758;6.872;2023-06-14T10:31:58;24.80;99.90
37530;DHT22;23374;52.758;6.872;2023-06-14T10:34:28;24.90;99.90
37530;DHT22;23374;52.758;6.872;2023-06-14T10:37:02;25.10;99.90
37530;DHT22;23374;52.758;6.872;2023-06-14T10:39:23;25.30;99.90
37530;DHT22;23374;52.758;6.872;2023-06-14T10:41:55;25.30;99.90
37530;DHT22;23374;52.758;6.872;2023-06-14T10:46:14;25.30;99.90
37530;DHT22;23374;52.758;6.872;2023-06-14T10:50:48;24.70;99.90
37530;DHT22;23374;52.758;6.872;2023-06-14T10:53:22;24.80;99.90
37530;DHT22;23374;52.758;6.872;2023-06-14T10:55:44;24.90;99.90
37530;DHT22;23374;52.758;6.872;2023-06-14T10:58:04;25.00;99.90
37530;DHT22;23374;52.758;6.872;2023-06-14T11:00:28;25.10;99.90
37530;DHT22;23374;52.758;6.872;2023-06-14T11:03:43;25.10;99.90
37530;DHT22;23374;52.758;6.872;2023-06-14T11:06:14;25.00;99.90
37530;DHT22;23374;52.758;6.872;2023-06-14T11:11:33;24.90;99.90
37530;DHT22;23374;52.758;6.872;2023-06-14T11:13:54;25.10;99.90
37530;DHT22;23374;52.758;6.872;2023-06-14T11:16:17;25.20;99.90
37530;DHT22;23374;52.758;6.872;2023-06-14T11:18:38;25.40;99.90
37530;DHT22;23374;52.758;6.872;2023-06-14T11:20:58;25.50;99.90
37530;DHT22;23374;52.758;6.872;2023-06-14T11:23:20;25.40;99.90
37530;DHT22;23374;52.758;6.872;2023-06-14T11:25:41;25.60;99.90
37530;DHT22;23374;52.758;6.872;2023-06-14T11:28:01;25.60;99.90
37530;DHT22;23374;52.758;6.872;2023-06-14T11:30:22;25.60;99.90
37530;DHT22;23374;52.758;6.872;2023-06-14T11:32:46;25.60;99.90
37530;DHT22;23374;52.758;6.872;2023-06-14T11:35:08;25.70;99.90
37530;DHT22;23374;52.758;6.872;2023-06-14T11:37:29;25.50;99.90
37530;DHT22;23374;52.758;6.872;2023-06-14T11:39:50;25.60;99.90
37530;DHT22;23374;52.758;6.872;2023-06-14T11:42:15;25.50;99.90
37530;DHT22;23374;52.758;6.872;2023-06-14T11:44:35;25.70;99.90
37530;DHT22;23374;52.758;6.872;2023-06-14T11:46:56;25.60;99.90
37530;DHT22;23374;52.758;6.872;2023-06-14T11:49:17;25.50;99.90
37530;DHT22;23374;52.758;6.872;2023-06-14T11:53:30;25.50;99.90
37530;DHT22;23374;52.758;6.872;2023-06-14T11:55:51;25.60;99.90
37530;DHT22;23374;52.758;6.872;2023-06-14T11:58:11;25.70;99.90
37530;DHT22;23374;52.758;6.872;2023-06-14T12:00:32;25.80;99.90
37530;DHT22;23374;52.758;6.872;2023-06-14T12:02:57;25.90;99.90
37530;DHT22;23374;52.758;6.872;2023-06-14T12:05:21;25.90;99.90
37530;DHT22;23374;52.758;6.872;2023-06-14T12:07:41;25.90;99.90
37530;DHT22;23374;52.758;6.872;2023-06-14T12:10:09;26.00;99.90
37530;DHT22;23374;52.758;6.872;2023-06-14T12:12:30;26.00;99.90
37530;DHT22;23374;52.758;6.872;2023-06-14T12:14:52;25.90;99.90
37530;DHT22;23374;52.758;6.872;2023-06-14T12:17:13;26.00;99.90
37530;DHT22;23374;52.758;6.872;2023-06-14T12:19:44;26.00;99.90
37530;DHT22;23374;52.758;6.872;2023-06-14T12:22:05;26.10;99.90
37530;DHT22;23374;52.758;6.872;2023-06-14T12:24:28;26.20;99.90
37530;DHT22;23374;52.758;6.872;2023-06-14T12:26:51;26.20;99.90
37530;DHT22;23374;52.758;6.872;2023-06-14T12:29:13;26.20;99.90
37530;DHT22;23374;52.758;6.872;2023-06-14T12:31:33;26.40;99.90
37530;DHT22;23374;52.758;6.872;2023-06-14T12:33:54;26.50;99.90
37530;DHT22;23374;52.758;6.872;2023-06-14T12:36:14;26.70;99.90
37530;DHT22;23374;52.758;6.872;2023-06-14T12:38:36;26.70;99.90
37530;DHT22;23374;52.758;6.872;2023-06-14T12:40:56;26.50;99.90
37530;DHT22;23374;52.758;6.872;2023-06-14T12:43:18;26.30;99.90
37530;DHT22;23374;52.758;6.872;2023-06-14T12:45:39;26.40;99.90
37530;DHT22;23374;52.758;6.872;2023-06-14T12:47:59;26.40;99.90
37530;DHT22;23374;52.758;6.872;2023-06-14T12:50:20;26.50;99.90
37530;DHT22;23374;52.758;6.872;2023-06-14T12:52:40;26.60;99.90
37530;DHT22;23374;52.758;6.872;2023-06-14T12:55:00;26.80;99.90
37530;DHT22;23374;52.758;6.872;2023-06-14T12:57:20;26.60;99.90
37530;DHT22;23374;52.758;6.872;2023-06-14T12:59:40;26.50;99.90
37530;DHT22;23374;52.758;6.872;2023-06-14T13:03:01;26.50;99.90
37530;DHT22;23374;52.758;6.872;2023-06-14T13:05:22;26.50;99.90
37530;DHT22;23374;52.758;6.872;2023-06-14T13:07:43;26.50;99.90
37530;DHT22;23374;52.758;6.872;2023-06-14T13:10:04;26.60;99.90
37530;DHT22;23374;52.758;6.872;2023-06-14T13:12:25;26.60;99.90
37530;DHT22;23374;52.758;6.872;2023-06-14T13:14:45;26.70;99.90
37530;DHT22;23374;52.758;6.872;2023-06-14T13:17:09;26.90;99.90
37530;DHT22;23374;52.758;6.872;2023-06-14T13:19:30;27.00;99.90
37530;DHT22;23374;52.758;6.872;2023-06-14T13:21:50;27.00;99.90
37530;DHT22;23374;52.758;6.872;2023-06-14T13:24:11;26.90;99.90
37530;DHT22;23374;52.758;6.872;2023-06-14T13:26:33;26.90;99.90
37530;DHT22;23374;52.758;6.872;2023-06-14T13:28:53;26.90;99.90
37530;DHT22;23374;52.758;6.872;2023-06-14T13:31:13;26.90;99.90
37530;DHT22;23374;52.758;6.872;2023-06-14T13:33:33;27.00;99.90
37530;DHT22;23374;52.758;6.872;2023-06-14T13:35:54;27.10;99.90
37530;DHT22;23374;52.758;6.872;2023-06-14T13:38:14;27.10;99.90
37530;DHT22;23374;52.758;6.872;2023-06-14T13:40:35;27.00;99.90
37530;DHT22;23374;52.758;6.872;2023-06-14T13:42:55;27.00;99.90
37530;DHT22;23374;52.758;6.872;2023-06-14T13:45:16;27.00;99.90
37530;DHT22;23374;52.758;6.872;2023-06-14T13:47:36;27.10;99.90
37530;DHT22;23374;52.758;6.872;2023-06-14T13:49:57;27.00;99.90
37530;DHT22;23374;52.758;6.872;2023-06-14T13:52:17;26.90;99.90
37530;DHT22;23374;52.758;6.872;2023-06-14T13:54:37;27.00;99.90
37530;DHT22;23374;52.758;6.872;2023-06-14T13:56:58;27.10;99.90
37530;DHT22;23374;52.758;6.872;2023-06-14T13:59:19;27.20;99.90
37530;DHT22;23374;52.758;6.872;2023-06-14T14:01:39;27.30;99.90
37530;DHT22;23374;52.758;6.872;2023-06-14T14:04:00;27.40;99.90
37530;DHT22;23374;52.758;6.872;2023-06-14T14:06:20;27.50;99.90
37530;DHT22;23374;52.758;6.872;2023-06-14T14:08:41;27.60;99.90
37530;DHT22;23374;52.758;6.872;2023-06-14T14:11:02;27.60;99.90
37530;DHT22;23374;52.758;6.872;2023-06-14T14:13:22;27.30;99.90
37530;DHT22;23374;52.758;6.872;2023-06-14T14:15:43;27.10;99.90
37530;DHT22;23374;52.758;6.872;2023-06-14T14:18:04;27.00;99.90
37530;DHT22;23374;52.758;6.872;2023-06-14T14:20:25;27.00;99.90
37530;DHT22;23374;52.758;6.872;2023-06-14T14:22:45;27.10;99.90
37530;DHT22;23374;52.758;6.872;2023-06-14T14:25:06;27.00;99.90
37530;DHT22;23374;52.758;6.872;2023-06-14T14:27:27;27.00;99.90
37530;DHT22;23374;52.758;6.872;2023-06-14T14:29:47;27.00;99.90
37530;DHT22;23374;52.758;6.872;2023-06-14T14:32:08;27.00;99.90
37530;DHT22;23374;52.758;6.872;2023-06-14T14:34:33;26.90;99.90
37530;DHT22;23374;52.758;6.872;2023-06-14T14:36:54;26.90;99.90
37530;DHT22;23374;52.758;6.872;2023-06-14T14:39:15;26.70;99.90
37530;DHT22;23374;52.758;6.872;2023-06-14T14:41:35;27.00;99.90
37530;DHT22;23374;52.758;6.872;2023-06-14T14:43:55;27.00;99.90
37530;DHT22;23374;52.758;6.872;2023-06-14T14:46:16;26.80;99.90
37530;DHT22;23374;52.758;6.872;2023-06-14T14:48:37;26.50;99.90
37530;DHT22;23374;52.758;6.872;2023-06-14T14:50:57;26.50;99.90
37530;DHT22;23374;52.758;6.872;2023-06-14T14:53:17;26.60;99.90
37530;DHT22;23374;52.758;6.872;2023-06-14T14:55:38;26.70;99.90
37530;DHT22;23374;52.758;6.872;2023-06-14T14:58:00;26.90;99.90
37530;DHT22;23374;52.758;6.872;2023-06-14T15:00:21;27.10;99.90
37530;DHT22;23374;52.758;6.872;2023-06-14T15:02:41;27.30;99.90
37530;DHT22;23374;52.758;6.872;2023-06-14T15:05:01;27.30;99.90
37530;DHT22;23374;52.758;6.872;2023-06-14T15:07:22;27.10;99.90
37530;DHT22;23374;52.758;6.872;2023-06-14T15:09:42;26.80;99.90
37530;DHT22;23374;52.758;6.872;2023-06-14T15:12:04;26.70;99.90
37530;DHT22;23374;52.758;6.872;2023-06-14T15:14:25;26.90;99.90
37530;DHT22;23374;52.758;6.872;2023-06-14T15:16:45;27.00;99.90
37530;DHT22;23374;52.758;6.872;2023-06-14T15:19:05;27.10;99.90
37530;DHT22;23374;52.758;6.872;2023-06-14T15:21:26;27.20;99.90